Alpine Airstrip, AK

5:43 PM AKDT on July 30, 2016 (GMT -0800)
Deadhorse Alpine Airstrip | | Change Station

Elev 16 ft 70.34 °N, 150.94 °W | Updated 1 hour ago

Light Rain
Light Rain Mist
45 °F
Feels Like 37 °F
N
16
Wind Variable Wind from WSW

Today
High -- | Low -- °F
--% Chance of Precip.
Yesterday
High -- | Low -- °F
Precip. -- in
Pressure 29.77 in
Visibility 3.0 miles
Clouds Overcast 2000 ft
Windchill 37 °F
Dew Point 39 °F
Humidity 81%
Rainfall 0.00 in
Snow Depth Not available.
3:03 AM 1:06 AM
Waning Crescent, 9% visible
METAR PALP 310037Z 25014KT 3SM -RABR OVC020 07/04 A2977
Pressure 29.77 in
Visibility 3.0 miles
Clouds Overcast 2000 ft
Windchill 37 °F
Dew Point 39 °F
Humidity 81%
Rainfall 0.00 in
Snow Depth Not available.
3:03 AM 1:06 AM
Waning Crescent, 9% visible
METAR PALP 310037Z 25014KT 3SM -RABR OVC020 07/04 A2977

10-Day Weather Forecast

Almanac

Astronomy

Jul. 30, 2016 Rise Set
Actual Time
Civil Twilight
Nautical Twilight
Astronomical Twilight
Moon
Length of Visible Light
Length of Day
Tomorrow will be .
, % of the Moon is Illuminated

Today's Extremes

State Highs State Lows

Community

WunderPhotos

Upload Photos

1,928,702 photos uploaded!

WunderBlog® & News

Nearby

Air Quality

  Air Quality AQ Index Pollutant
Not available.

Snow Depth

Station Depth Elevation

Earthquake Activity

City Distance Mag. Time & Date
Minimum magnitude displayed is 2.5.

Coastal Water Temperatures

Place Temperature

Stations

Nearby Weather Stations

Station Location Temp. Windchill Dew Point Humidity Wind Precip. Elev Updated Type
                   

Watches & Warnings

There are currently no watches in effect.